Preview of NWS' New Version of Forecast
This preview is not operational and should not be used for support decisions.

Terminal Aerodrome Forecast (TAF)

Issued by National Weather Service (NWS)

                            
000
FTUS46 KSEW 231720
TAFBLI
TAF
KBLI 231720Z 2318/2418 18006KT P6SM -RA FEW010 BKN050 BKN090
     FM232300 19013KT P6SM -RA SCT025 OVC070
     FM240200 17014KT P6SM -RA SCT020 OVC045
     FM240600 17010KT P6SM VCSH OVC015=